If you wish to contribute or participate in the discussions about articles you are invited to join SKYbrary as a registered user

William R. Fairchild International Airport

From SKYbrary Wiki
KCLM
Airport
ICAO: KCLM
Summary
Name William R. Fairchild International Airport
Region North America
Territory United States US.gif
Location Port Angeles, Washington
Serving
Coordinates 48° 6' 59.3374", -123° 29' 35.6708"
Close to Unk
Runways
Designator Length Width Surface ROPS
8/26 1935 m6,348.425 ft 46 m150.919 ft ASP yes/yes
13/31 989 m3,244.751 ft 15 m49.213 ft ASP yes/yes
METAR
Observation KCLM 241453Z AUTO 24004KT 10SM FEW001 11/10 A3016 RMK AO2 SLP215 T01060100 53006
Station Port Angeles, William R. Fairchild International Airport
Date/Time 24 September 2017 14:53:00
Wind direction 240°
Wind speed 04 kts
Lowest cloud amount few clouds
Temperature 10.6°C
Dew point 10°C
Humidity 96%
QNH hPa
Weather condition n/a

WX
Tag(s) Fog

William R. Fairchild International Airport

ICAO: KCLM IATA: CLM

Description

William R. Fairchild International Airport is a public use airport located within the city limits of Port Angeles, in Clallam County, Washington.

Climatology

Temperate Marine climate/Oceanic climate (Köppen climate classification Cfb). Moderately cool summer and comparatively warm winter.

Maps

Terrain

Loading map...

Airport Layout

Loading map...


Accidents & Serious Incidents at or in vicinity of KCLM

None on SKYbrary